Time;durP1;ratioP1;P1;durP2;ratioP2;P2;SDS_P1;SDS_P2;PMS_P1;PMS_P2;Temp;Humidity;BMP_temperature;BMP_pressure;BME280_temperature;BME280_humidity;BME280_pressure;Samples;Min_cycle;Max_cycle;Signal;HPM_P1;HPM_P2
2021/07/28 00:01:54;;;;;;;2.17;1.20;;;19.40;57.90;;;;;;5099712;28;20147;-62
2021/07/28 00:04:22;;;;;;;2.28;1.20;;;19.60;56.00;;;;;;5104886;28;20035;-60
2021/07/28 00:06:49;;;;;;;1.75;0.90;;;19.80;56.60;;;;;;5099351;28;20058;-58
2021/07/28 00:09:16;;;;;;;3.08;1.10;;;20.00;55.20;;;;;;5096674;28;20051;-61
2021/07/28 00:11:47;;;;;;;4.78;1.25;;;20.00;57.00;;;;;;5102169;28;20027;-57
2021/07/28 00:14:15;;;;;;;2.83;1.20;;;20.10;56.60;;;;;;5097889;28;20165;-58
2021/07/28 00:16:42;;;;;;;2.75;1.20;;;20.10;56.50;;;;;;5102140;28;20032;-60
2021/07/28 00:19:16;;;;;;;1.48;1.02;;;20.30;54.50;;;;;;5098740;28;20119;-59
2021/07/28 00:24:31;;;;;;;2.70;1.10;;;20.40;54.60;;;;;;5098468;28;20134;-57
2021/07/28 00:26:59;;;;;;;2.80;0.70;;;20.30;54.20;;;;;;5104014;28;20051;-55
2021/07/28 00:29:30;;;;;;;1.50;1.02;;;20.50;54.80;;;;;;5099589;28;20054;-60
2021/07/28 00:31:58;;;;;;;3.22;1.85;;;20.50;54.60;;;;;;5099587;27;20028;-61
2021/07/28 00:34:26;;;;;;;3.35;0.98;;;20.60;54.60;;;;;;5097039;28;20075;-56
2021/07/28 00:36:53;;;;;;;3.25;0.82;;;20.80;54.70;;;;;;5100692;28;20028;-56
2021/07/28 00:39:20;;;;;;;2.15;1.10;;;21.00;54.10;;;;;;5093927;28;20367;-53
2021/07/28 00:41:47;;;;;;;2.92;0.80;;;21.30;52.90;;;;;;5101451;28;20422;-57
2021/07/28 00:44:15;;;;;;;4.47;0.80;;;21.30;53.00;;;;;;5100994;28;20385;-59
2021/07/28 00:46:42;;;;;;;3.00;0.82;;;21.40;53.00;;;;;;5097913;28;20478;-56
2021/07/28 00:49:10;;;;;;;2.05;0.77;;;21.40;51.80;;;;;;5094427;28;20137;-60
2021/07/28 00:51:37;;;;;;;2.95;1.02;;;21.50;50.00;;;;;;5101569;28;20027;-54
2021/07/28 00:54:05;;;;;;;1.90;0.90;;;21.40;52.90;;;;;;5096375;28;20335;-50
2021/07/28 00:56:32;;;;;;;1.85;0.80;;;21.40;51.90;;;;;;5082033;28;20020;-53
2021/07/28 00:59:00;;;;;;;3.85;0.70;;;21.40;52.00;;;;;;5097376;28;20043;-61
2021/07/28 01:01:28;;;;;;;1.63;0.95;;;21.50;50.50;;;;;;5101088;28;20493;-56
2021/07/28 01:03:55;;;;;;;2.90;0.63;;;21.60;51.50;;;;;;5099775;28;20050;-52
2021/07/28 01:06:22;;;;;;;1.45;0.88;;;21.50;52.40;;;;;;5098540;28;20103;-66
2021/07/28 01:08:50;;;;;;;1.23;0.75;;;21.50;51.60;;;;;;5097519;28;20031;-63
2021/07/28 01:11:27;;;;;;;2.78;0.60;;;21.50;52.30;;;;;;5110182;28;20034;-55
2021/07/28 01:13:57;;;;;;;2.08;0.70;;;21.50;52.30;;;;;;5110318;28;20041;-55
2021/07/28 01:16:26;;;;;;;3.42;0.60;;;21.50;51.10;;;;;;5105816;28;20031;-55
2021/07/28 01:18:55;;;;;;;2.92;0.93;;;21.50;50.40;;;;;;5110352;28;20027;-53
2021/07/28 01:21:22;;;;;;;5.85;0.70;;;21.40;49.70;;;;;;5092037;28;20042;-54
2021/07/28 01:23:52;;;;;;;1.27;0.68;;;21.50;49.70;;;;;;5109996;28;20023;-55
2021/07/28 01:26:21;;;;;;;2.28;1.25;;;21.60;50.20;;;;;;5109679;28;20476;-54
2021/07/28 01:28:49;;;;;;;6.15;1.02;;;21.60;49.90;;;;;;5109302;28;20098;-53
2021/07/28 01:31:18;;;;;;;1.92;0.70;;;21.80;49.20;;;;;;5109538;28;20031;-52
2021/07/28 01:33:47;;;;;;;4.68;0.60;;;21.80;49.00;;;;;;5109748;28;20123;-54
2021/07/28 01:36:22;;;;;;;2.60;0.50;;;21.70;49.90;;;;;;5109833;28;20036;-55
2021/07/28 01:38:51;;;;;;;2.67;0.55;;;21.60;49.60;;;;;;5109781;28;20385;-51
2021/07/28 01:41:19;;;;;;;2.63;0.40;;;21.70;48.90;;;;;;5109318;28;20071;-50
2021/07/28 01:43:46;;;;;;;3.53;0.77;;;21.90;48.90;;;;;;5110153;28;20110;-52
2021/07/28 01:46:14;;;;;;;3.10;0.80;;;21.90;49.30;;;;;;5109859;28;20062;-54
2021/07/28 01:48:45;;;;;;;7.60;0.93;;;22.00;48.90;;;;;;5110046;28;20158;-56
2021/07/28 01:51:12;;;;;;;2.53;1.00;;;21.90;49.70;;;;;;5090577;28;20028;-51
2021/07/28 01:53:41;;;;;;;2.13;1.00;;;21.90;49.60;;;;;;5109522;28;20034;-53
2021/07/28 01:56:08;;;;;;;0.90;0.45;;;21.80;49.70;;;;;;5109367;28;20797;-53
2021/07/28 01:58:39;;;;;;;0.95;0.68;;;21.90;49.80;;;;;;5109494;28;20043;-53
2021/07/28 02:01:06;;;;;;;1.10;0.82;;;21.80;49.20;;;;;;5109143;28;20509;-53
2021/07/28 02:03:34;;;;;;;3.40;0.70;;;22.00;49.60;;;;;;5109353;28;20501;-50
2021/07/28 02:06:01;;;;;;;1.02;0.50;;;22.30;47.00;;;;;;5109834;28;20020;-55
2021/07/28 02:08:28;;;;;;;3.33;0.65;;;22.30;47.00;;;;;;5109323;28;20081;-57
2021/07/28 02:10:56;;;;;;;1.23;0.57;;;22.70;45.50;;;;;;5109477;28;20088;-56
2021/07/28 02:13:23;;;;;;;9.75;8.73;;;22.90;46.80;;;;;;5109535;28;20019;-55
2021/07/28 02:15:51;;;;;;;3.35;0.82;;;23.10;45.80;;;;;;5108864;28;20034;-54
2021/07/28 02:18:18;;;;;;;2.83;0.80;;;23.30;45.90;;;;;;5109077;28;20493;-55
2021/07/28 02:20:45;;;;;;;7.78;1.20;;;23.20;44.90;;;;;;5108735;28;20557;-57
2021/07/28 02:23:13;;;;;;;3.47;1.27;;;23.30;45.90;;;;;;5107911;28;20092;-56
2021/07/28 02:25:41;;;;;;;1.85;0.77;;;23.30;46.20;;;;;;5108681;28;20359;-61
2021/07/28 02:28:09;;;;;;;3.70;0.77;;;23.30;45.90;;;;;;5108975;28;20547;-56
2021/07/28 02:30:36;;;;;;;3.22;0.60;;;23.40;45.70;;;;;;5108750;28;20039;-59
2021/07/28 02:33:03;;;;;;;1.30;0.70;;;23.40;46.90;;;;;;5109222;28;20407;-55
2021/07/28 02:35:31;;;;;;;3.65;1.00;;;23.30;46.40;;;;;;5109052;28;20030;-56
2021/07/28 02:37:58;;;;;;;2.10;0.93;;;23.20;47.00;;;;;;5109165;28;20091;-61
2021/07/28 02:40:25;;;;;;;2.28;0.57;;;22.50;49.50;;;;;;5108699;28;20135;-63
2021/07/28 02:42:53;;;;;;;1.63;0.60;;;22.30;50.50;;;;;;5108980;28;20039;-61
2021/07/28 02:45:20;;;;;;;2.78;0.93;;;22.20;50.20;;;;;;5108561;28;20031;-60
2021/07/28 02:50:44;;;;;;;3.10;0.80;;;22.40;50.50;;;;;;5079616;28;20142;-62
2021/07/28 02:53:12;;;;;;;1.70;0.75;;;22.50;49.50;;;;;;5108708;28;20087;-60
2021/07/28 02:55:39;;;;;;;1.45;0.82;;;22.60;50.00;;;;;;5109265;28;20024;-57
2021/07/28 02:58:06;;;;;;;1.75;0.82;;;22.80;49.50;;;;;;5109260;28;20028;-60
2021/07/28 03:00:34;;;;;;;1.83;0.73;;;22.70;49.80;;;;;;5108813;28;20023;-60
2021/07/28 03:03:01;;;;;;;2.25;0.68;;;22.80;49.20;;;;;;5110956;28;20430;-59
2021/07/28 03:05:29;;;;;;;7.50;0.95;;;22.80;49.50;;;;;;5112963;28;20470;-61
2021/07/28 03:07:56;;;;;;;1.38;0.73;;;22.80;49.20;;;;;;5112930;28;20180;-60
2021/07/28 03:10:23;;;;;;;1.88;0.60;;;23.20;49.50;;;;;;5112311;28;20474;-60
2021/07/28 03:12:51;;;;;;;1.48;0.68;;;23.20;48.70;;;;;;5112264;28;20063;-59
2021/07/28 03:15:19;;;;;;;2.05;0.73;;;23.40;48.50;;;;;;5111889;28;20682;-63
2021/07/28 03:17:49;;;;;;;4.68;0.80;;;23.40;49.10;;;;;;5112296;28;20398;-60
2021/07/28 03:20:17;;;;;;;1.60;0.55;;;23.60;48.90;;;;;;5112453;28;20138;-63
2021/07/28 03:22:44;;;;;;;1.92;0.73;;;23.70;48.70;;;;;;5112307;28;20042;-58
2021/07/28 03:25:12;;;;;;;2.45;1.08;;;23.70;48.70;;;;;;5112506;28;20028;-60
2021/07/28 03:27:39;;;;;;;1.50;0.40;;;23.70;48.50;;;;;;5112140;28;20438;-59
2021/07/28 03:30:07;;;;;;;1.55;0.45;;;23.70;47.60;;;;;;5111580;28;20019;-61
2021/07/28 03:32:34;;;;;;;1.02;0.45;;;23.70;47.50;;;;;;5112142;28;20027;-61
2021/07/28 03:35:02;;;;;;;1.20;0.52;;;23.80;47.60;;;;;;5111898;28;20053;-58
2021/07/28 03:37:29;;;;;;;1.48;0.70;;;23.90;47.10;;;;;;5111847;28;20040;-63
2021/07/28 03:40:00;;;;;;;2.85;0.70;;;23.80;48.70;;;;;;5111692;28;20798;-59
2021/07/28 03:42:32;;;;;;;0.85;0.70;;;23.90;48.60;;;;;;5111587;28;20119;-60
2021/07/28 03:45:00;;;;;;;6.10;0.80;;;24.10;46.50;;;;;;5111564;28;20024;-62
2021/07/28 03:47:28;;;;;;;3.40;0.90;;;24.10;47.30;;;;;;5111743;28;20067;-61
2021/07/28 03:49:55;;;;;;;4.40;1.00;;;24.10;47.70;;;;;;5111688;28;20032;-59
2021/07/28 03:52:23;;;;;;;4.00;0.80;;;24.00;47.20;;;;;;5111377;28;20171;-59
2021/07/28 03:54:51;;;;;;;5.38;1.00;;;23.80;47.10;;;;;;5111362;28;20074;-64
2021/07/28 03:57:19;;;;;;;4.22;1.30;;;23.70;49.00;;;;;;5110688;28;20458;-65
2021/07/28 03:59:46;;;;;;;3.70;1.73;;;23.60;48.80;;;;;;5111499;28;20027;-63
2021/07/28 04:02:14;;;;;;;3.63;1.60;;;23.40;49.40;;;;;;5111313;28;20177;-61
2021/07/28 04:04:41;;;;;;;4.07;1.40;;;23.20;50.00;;;;;;5112020;28;20015;-61
2021/07/28 04:07:08;;;;;;;4.45;1.77;;;23.20;49.30;;;;;;5111737;28;20023;-62
2021/07/28 04:09:36;;;;;;;4.75;1.30;;;23.20;51.40;;;;;;5111483;28;20059;-58
2021/07/28 04:12:05;;;;;;;3.30;1.40;;;23.20;50.20;;;;;;5111468;28;20055;-59
2021/07/28 04:14:32;;;;;;;2.25;0.88;;;23.30;49.40;;;;;;5110859;28;20072;-63
2021/07/28 04:16:59;;;;;;;4.80;1.27;;;23.40;49.70;;;;;;5111178;28;20027;-55
2021/07/28 04:19:27;;;;;;;2.60;1.23;;;23.50;50.40;;;;;;5111527;28;20467;-59
2021/07/28 04:21:54;;;;;;;2.95;1.20;;;23.50;48.80;;;;;;5111434;28;20690;-60
2021/07/28 04:24:21;;;;;;;5.00;1.20;;;23.50;50.10;;;;;;5110739;28;20028;-63
2021/07/28 04:26:49;;;;;;;1.83;1.02;;;23.60;48.90;;;;;;5111991;28;20081;-64
2021/07/28 04:29:16;;;;;;;3.15;0.82;;;23.60;49.40;;;;;;5111202;28;20047;-63
2021/07/28 04:31:44;;;;;;;1.70;0.60;;;23.60;49.40;;;;;;5111004;28;20035;-61
2021/07/28 04:34:11;;;;;;;6.88;2.92;;;23.50;49.80;;;;;;5092821;28;20027;-65
2021/07/28 04:36:39;;;;;;;16.02;6.50;;;23.30;48.90;;;;;;5111583;28;20024;-65
2021/07/28 04:39:06;;;;;;;11.23;5.53;;;23.20;49.40;;;;;;5111093;28;20107;-64
2021/07/28 04:41:34;;;;;;;17.80;8.32;;;23.10;50.40;;;;;;5095523;28;20486;-59
2021/07/28 04:44:03;;;;;;;19.70;10.30;;;22.90;50.50;;;;;;5080037;28;20031;-63
2021/07/28 04:46:31;;;;;;;16.10;8.40;;;22.90;50.00;;;;;;5096762;28;20036;-65
2021/07/28 04:48:58;;;;;;;16.83;8.75;;;22.70;49.20;;;;;;5100383;28;20024;-57
2021/07/28 04:51:26;;;;;;;14.20;7.10;;;22.60;50.90;;;;;;5099826;28;20035;-58
2021/07/28 04:53:54;;;;;;;14.45;7.80;;;22.50;50.70;;;;;;5098725;28;20028;-65
2021/07/28 04:56:21;;;;;;;12.07;6.25;;;22.40;51.50;;;;;;5100977;28;20032;-62
2021/07/28 04:58:49;;;;;;;14.63;5.65;;;22.40;52.00;;;;;;5097250;28;20020;-63
2021/07/28 05:01:16;;;;;;;19.52;7.10;;;22.40;50.50;;;;;;5101288;28;20043;-67
2021/07/28 05:03:43;;;;;;;10.93;5.43;;;22.40;51.30;;;;;;5097434;28;20169;-65
2021/07/28 05:09:34;;;;;;;12.38;5.93;;;22.60;50.90;;;;;;5017218;28;20401;-65
2021/07/28 05:12:02;;;;;;;10.05;5.70;;;22.70;50.50;;;;;;5094478;28;20055;-62
2021/07/28 05:14:29;;;;;;;10.63;6.10;;;22.70;49.50;;;;;;5100995;28;20020;-60
2021/07/28 05:16:56;;;;;;;8.40;4.97;;;22.60;50.90;;;;;;5100877;28;20059;-61
2021/07/28 05:19:23;;;;;;;10.82;5.75;;;22.60;50.50;;;;;;5100150;28;20431;-62
2021/07/28 05:21:51;;;;;;;15.60;5.60;;;22.40;50.30;;;;;;5102371;28;20127;-64
2021/07/28 05:24:18;;;;;;;13.15;5.40;;;22.20;51.40;;;;;;5100260;28;20029;-63
2021/07/28 05:26:45;;;;;;;12.60;6.32;;;22.10;51.20;;;;;;5096847;28;20394;-62
2021/07/28 05:29:13;;;;;;;10.80;6.43;;;22.00;51.30;;;;;;5095968;28;20566;-60
2021/07/28 05:31:40;;;;;;;11.20;4.65;;;21.80;52.50;;;;;;5083008;28;20424;-63
2021/07/28 05:34:07;;;;;;;9.15;5.68;;;21.70;51.70;;;;;;5099412;28;20058;-63
2021/07/28 05:36:35;;;;;;;11.63;5.80;;;21.60;54.10;;;;;;5097506;28;20425;-62
2021/07/28 05:39:02;;;;;;;10.77;5.80;;;21.50;53.50;;;;;;5100265;28;20088;-56
2021/07/28 05:41:30;;;;;;;11.57;4.28;;;21.40;53.70;;;;;;5096407;28;20113;-63
2021/07/28 05:43:58;;;;;;;9.82;5.15;;;21.30;53.10;;;;;;5097006;28;20056;-65
2021/07/28 05:46:25;;;;;;;11.98;5.13;;;21.20;54.20;;;;;;5095824;28;20083;-64
2021/07/28 05:48:52;;;;;;;9.48;5.10;;;21.10;54.90;;;;;;5097894;28;20023;-61
2021/07/28 05:51:20;;;;;;;8.60;4.85;;;21.00;54.50;;;;;;5105411;28;20039;-63
2021/07/28 05:53:47;;;;;;;9.07;4.88;;;20.90;54.60;;;;;;5110002;28;20027;-64
2021/07/28 05:56:14;;;;;;;9.35;5.57;;;20.90;55.40;;;;;;5109142;28;20087;-63
2021/07/28 05:58:42;;;;;;;7.60;4.60;;;20.70;55.30;;;;;;5109876;28;20624;-62
2021/07/28 06:01:09;;;;;;;6.57;4.25;;;20.60;56.10;;;;;;5110039;28;20031;-64
2021/07/28 06:03:36;;;;;;;10.48;4.65;;;20.50;55.90;;;;;;5109863;28;20126;-63
2021/07/28 06:06:04;;;;;;;7.97;4.30;;;20.50;55.60;;;;;;5109967;28;20015;-63
2021/07/28 06:08:31;;;;;;;11.00;4.38;;;20.40;57.10;;;;;;5109377;28;20039;-61
2021/07/28 06:10:58;;;;;;;10.02;4.40;;;20.30;56.90;;;;;;5109813;28;20031;-63
2021/07/28 06:13:26;;;;;;;7.95;4.10;;;20.30;56.90;;;;;;5108744;28;20027;-61
2021/07/28 06:15:53;;;;;;;7.60;4.30;;;20.20;56.90;;;;;;5109917;28;20100;-62
2021/07/28 06:18:20;;;;;;;8.75;4.38;;;20.10;57.80;;;;;;5091087;28;20023;-63
2021/07/28 06:20:48;;;;;;;7.80;4.32;;;20.00;57.80;;;;;;5092105;28;20035;-63
2021/07/28 06:23:15;;;;;;;7.78;3.88;;;20.00;58.00;;;;;;5110646;28;20072;-64
2021/07/28 06:25:46;;;;;;;9.65;4.13;;;19.90;57.40;;;;;;5110288;28;20046;-61
2021/07/28 06:28:23;;;;;;;8.20;4.13;;;19.90;58.20;;;;;;5110045;28;20405;-62
2021/07/28 06:30:54;;;;;;;6.25;3.53;;;19.90;58.20;;;;;;5110285;28;20110;-67
2021/07/28 06:33:22;;;;;;;9.05;4.35;;;19.80;58.70;;;;;;5110515;28;20047;-65
2021/07/28 06:35:51;;;;;;;6.05;3.88;;;19.70;58.20;;;;;;5109521;28;20046;-58
2021/07/28 06:38:20;;;;;;;5.95;3.15;;;19.70;56.70;;;;;;5094116;28;20038;-58
2021/07/28 06:40:49;;;;;;;7.57;3.80;;;19.70;58.20;;;;;;5095005;28;20024;-63
2021/07/28 06:43:16;;;;;;;10.45;3.67;;;19.70;57.10;;;;;;5113259;28;20118;-55
2021/07/28 06:45:43;;;;;;;7.47;3.53;;;19.60;58.50;;;;;;5113578;28;20111;-60
2021/07/28 06:48:14;;;;;;;5.80;3.75;;;19.60;58.60;;;;;;5113358;28;20047;-55
2021/07/28 06:50:44;;;;;;;6.55;3.47;;;19.60;58.30;;;;;;5113818;28;20027;-56
2021/07/28 06:53:12;;;;;;;5.25;3.10;;;19.50;58.20;;;;;;5113637;28;20024;-61
2021/07/28 06:55:39;;;;;;;7.03;3.22;;;19.40;59.20;;;;;;5113621;28;20024;-61
2021/07/28 06:58:06;;;;;;;4.85;2.88;;;19.40;59.10;;;;;;5113214;28;20035;-61
2021/07/28 07:00:35;;;;;;;5.60;2.95;;;19.40;58.70;;;;;;5113415;28;20027;-62
2021/07/28 07:03:02;;;;;;;6.53;3.00;;;19.40;59.20;;;;;;5113228;28;20043;-63
2021/07/28 07:05:30;;;;;;;3.85;2.65;;;19.40;58.90;;;;;;5112905;28;20030;-61
2021/07/28 07:07:58;;;;;;;5.93;2.90;;;19.30;59.30;;;;;;5113260;28;20493;-65
2021/07/28 07:10:25;;;;;;;5.57;2.78;;;19.30;58.70;;;;;;5112911;28;20023;-63
2021/07/28 07:12:52;;;;;;;5.20;2.63;;;19.30;58.80;;;;;;5112626;28;20039;-62
2021/07/28 07:15:20;;;;;;;6.03;2.50;;;19.20;59.20;;;;;;5113109;28;20098;-64
2021/07/28 07:17:47;;;;;;;3.38;1.98;;;19.20;59.70;;;;;;5112675;28;20119;-63
2021/07/28 07:20:15;;;;;;;3.80;2.17;;;19.10;59.10;;;;;;5094597;28;20466;-60
2021/07/28 07:22:42;;;;;;;3.30;2.20;;;19.10;59.10;;;;;;5113274;28;20040;-60
2021/07/28 07:25:10;;;;;;;5.10;2.20;;;19.10;59.00;;;;;;5113538;28;20083;-62
2021/07/28 07:27:40;;;;;;;4.65;2.30;;;19.00;59.90;;;;;;5113369;28;20094;-62
2021/07/28 07:30:08;;;;;;;7.00;2.20;;;19.00;60.10;;;;;;5113191;28;20040;-61
2021/07/28 07:32:36;;;;;;;4.18;1.98;;;18.90;59.90;;;;;;5112555;28;20032;-61
2021/07/28 07:35:04;;;;;;;4.65;2.40;;;18.90;60.20;;;;;;5105374;28;20111;-54
2021/07/28 07:37:31;;;;;;;5.30;2.47;;;18.90;60.60;;;;;;5112206;28;20119;-59
2021/07/28 07:39:58;;;;;;;2.67;1.77;;;18.70;60.40;;;;;;5112246;28;20466;-64
2021/07/28 07:42:26;;;;;;;3.03;1.88;;;18.70;60.50;;;;;;5112023;28;20120;-62
2021/07/28 07:44:56;;;;;;;5.85;2.28;;;18.70;60.60;;;;;;5112213;28;20027;-63
2021/07/28 07:47:23;;;;;;;4.15;2.20;;;18.60;60.90;;;;;;5093815;28;20801;-59
2021/07/28 07:49:50;;;;;;;5.30;1.80;;;18.60;60.90;;;;;;5110633;28;20027;-60
2021/07/28 07:52:18;;;;;;;5.30;1.90;;;18.60;60.90;;;;;;5112072;28;20019;-59
2021/07/28 07:54:45;;;;;;;3.80;1.92;;;18.50;60.30;;;;;;5112119;28;20506;-60
2021/07/28 07:57:12;;;;;;;4.32;1.45;;;18.50;61.30;;;;;;5111706;28;20032;-57
2021/07/28 07:59:40;;;;;;;6.20;1.88;;;18.50;61.20;;;;;;5112019;28;20027;-64
2021/07/28 08:02:07;;;;;;;6.80;2.25;;;18.40;61.30;;;;;;5111532;28;20050;-61
2021/07/28 08:04:34;;;;;;;7.25;2.42;;;18.40;61.30;;;;;;5110875;28;20057;-61
2021/07/28 08:07:02;;;;;;;3.08;1.52;;;18.40;61.60;;;;;;5111762;28;20028;-59
2021/07/28 08:09:29;;;;;;;7.80;1.92;;;18.40;61.40;;;;;;5111799;28;20035;-59
2021/07/28 08:11:58;;;;;;;6.60;2.00;;;18.40;61.20;;;;;;5111650;28;20036;-59
2021/07/28 08:14:25;;;;;;;4.65;1.63;;;18.40;61.90;;;;;;5111395;28;20110;-63
2021/07/28 08:16:52;;;;;;;5.82;1.40;;;18.40;61.90;;;;;;5093379;28;20035;-61
2021/07/28 08:19:20;;;;;;;2.90;1.30;;;18.30;62.60;;;;;;5110975;28;20030;-59
2021/07/28 08:21:47;;;;;;;2.50;1.17;;;18.30;62.00;;;;;;5111517;28;20039;-59
2021/07/28 08:24:16;;;;;;;1.95;0.93;;;18.30;62.00;;;;;;5093445;28;20047;-62
2021/07/28 08:26:43;;;;;;;4.18;1.00;;;18.30;61.80;;;;;;5111370;28;20043;-60
2021/07/28 08:29:11;;;;;;;1.75;1.38;;;18.30;61.90;;;;;;5111008;28;20055;-61
2021/07/28 08:31:38;;;;;;;3.35;1.50;;;18.30;61.80;;;;;;5111317;28;20036;-63
2021/07/28 08:34:05;;;;;;;4.35;1.27;;;18.30;62.20;;;;;;5111373;28;20107;-62
2021/07/28 08:36:33;;;;;;;5.03;1.20;;;18.20;62.20;;;;;;5111081;28;20652;-62
2021/07/28 08:39:00;;;;;;;2.53;1.10;;;18.20;62.20;;;;;;5111508;28;20038;-57
2021/07/28 08:41:28;;;;;;;5.05;1.38;;;18.20;62.80;;;;;;5111612;28;20031;-65
2021/07/28 08:43:58;;;;;;;2.20;1.10;;;18.20;62.10;;;;;;5112584;28;20023;-63
2021/07/28 08:46:27;;;;;;;2.67;1.20;;;18.20;62.10;;;;;;5093134;28;20499;-62
2021/07/28 08:48:55;;;;;;;3.92;0.95;;;18.20;62.00;;;;;;5093043;28;20028;-62
2021/07/28 08:51:28;;;;;;;1.60;0.88;;;18.20;61.80;;;;;;5103026;28;20757;-66
2021/07/28 08:53:56;;;;;;;2.83;1.27;;;18.20;61.90;;;;;;5090630;28;20047;-68
2021/07/28 08:56:24;;;;;;;2.70;0.93;;;18.20;61.80;;;;;;5072241;28;20431;-63
2021/07/28 08:58:51;;;;;;;1.75;0.85;;;18.20;61.70;;;;;;5090337;28;20043;-63
2021/07/28 09:01:19;;;;;;;2.40;1.40;;;18.20;61.80;;;;;;5090218;28;20093;-63
2021/07/28 09:03:48;;;;;;;1.90;0.82;;;18.20;61.90;;;;;;5091088;28;20427;-62
2021/07/28 09:06:30;;;;;;;3.40;0.75;;;18.10;61.90;;;;;;5090463;28;20032;-63
2021/07/28 09:09:02;;;;;;;;;;;18.10;61.90;;;;;;5091041;28;20036;-67
2021/07/28 09:11:29;;;;;;;4.55;0.90;;;18.10;62.00;;;;;;5090061;28;19915;-60
2021/07/28 09:14:14;;;;;;;0.90;0.50;;;18.10;62.10;;;;;;5090425;28;20031;-61
2021/07/28 09:16:42;;;;;;;4.75;0.93;;;18.10;62.20;;;;;;5090043;28;20106;-61
2021/07/28 09:19:09;;;;;;;1.58;0.80;;;18.10;62.40;;;;;;5089824;28;20479;-60
2021/07/28 09:21:37;;;;;;;2.40;0.70;;;18.10;62.30;;;;;;5089767;28;20055;-61
2021/07/28 09:24:10;;;;;;;1.80;1.05;;;18.00;62.40;;;;;;5090301;28;20035;-61
2021/07/28 09:26:46;;;;;;;11.27;1.40;;;18.00;62.40;;;;;;5090120;28;20064;-59
2021/07/28 09:29:18;;;;;;;5.35;0.90;;;18.00;62.70;;;;;;5090281;28;20155;-59
2021/07/28 09:31:48;;;;;;;2.45;0.60;;;17.90;62.70;;;;;;5090103;28;20036;-59
2021/07/28 09:34:19;;;;;;;3.40;0.65;;;17.90;62.80;;;;;;5090277;28;20080;-62
2021/07/28 09:36:54;;;;;;;3.60;0.95;;;17.90;62.80;;;;;;5090148;28;20773;-59
2021/07/28 09:39:35;;;;;;;1.98;0.70;;;17.80;62.80;;;;;;5090413;28;20031;-61
2021/07/28 09:42:14;;;;;;;11.88;3.92;;;17.80;62.90;;;;;;5090043;28;20070;-62
2021/07/28 09:44:53;;;;;;;16.20;6.68;;;17.80;63.10;;;;;;5087543;28;20040;-64
2021/07/28 09:47:25;;;;;;;24.50;8.82;;;17.80;63.30;;;;;;5091534;28;20059;-62
2021/07/28 09:49:58;;;;;;;46.58;17.38;;;17.80;63.60;;;;;;5097152;28;20039;-55
2021/07/28 09:52:34;;;;;;;84.45;33.78;;;17.80;63.40;;;;;;5091687;28;20385;-56
2021/07/28 09:55:22;;;;;;;80.63;31.73;;;17.80;63.40;;;;;;5101062;28;20134;-63
2021/07/28 09:58:01;;;;;;;74.68;30.35;;;17.80;63.40;;;;;;5095145;28;20166;-54
2021/07/28 10:00:30;;;;;;;56.90;23.77;;;17.80;63.40;;;;;;5096834;28;20081;-61
2021/07/28 10:03:04;;;;;;;51.00;21.60;;;17.80;63.30;;;;;;5100361;28;20743;-64
2021/07/28 10:05:33;;;;;;;45.78;19.70;;;17.80;63.40;;;;;;5095360;28;20031;-60
2021/07/28 10:08:07;;;;;;;48.72;19.52;;;17.80;63.40;;;;;;5099597;28;20081;-59
2021/07/28 10:10:37;;;;;;;39.53;16.10;;;17.80;63.30;;;;;;5099431;28;20078;-63
2021/07/28 10:13:06;;;;;;;36.30;15.05;;;17.90;63.40;;;;;;5100855;28;20027;-62
2021/07/28 10:15:34;;;;;;;35.88;14.50;;;17.80;63.40;;;;;;5081666;28;21284;-60
2021/07/28 10:18:01;;;;;;;27.98;13.40;;;17.80;63.40;;;;;;5104680;28;20401;-63
2021/07/28 10:20:29;;;;;;;29.60;12.98;;;17.80;63.30;;;;;;5104545;28;20028;-61
2021/07/28 10:22:58;;;;;;;29.02;11.63;;;17.80;63.30;;;;;;5100970;28;20042;-64
2021/07/28 10:25:26;;;;;;;27.75;10.88;;;17.80;63.50;;;;;;5100462;28;20046;-63
2021/07/28 10:27:54;;;;;;;19.73;10.32;;;17.80;63.40;;;;;;5103769;28;20237;-59
2021/07/28 10:30:22;;;;;;;25.33;9.88;;;17.80;63.50;;;;;;5100952;28;20040;-61
2021/07/28 10:32:50;;;;;;;21.75;9.68;;;17.80;63.50;;;;;;5101321;28;20079;-63
2021/07/28 10:35:17;;;;;;;19.77;8.90;;;17.80;63.50;;;;;;5103153;28;20031;-62
2021/07/28 10:37:45;;;;;;;22.95;8.80;;;17.80;63.40;;;;;;5102473;28;20019;-61
2021/07/28 10:40:31;;;;;;;18.52;8.27;;;17.80;63.40;;;;;;5100398;28;20079;-62
2021/07/28 10:43:02;;;;;;;18.27;8.43;;;17.80;63.50;;;;;;5098350;28;20683;-64
2021/07/28 10:45:54;;;;;;;18.48;7.93;;;17.80;63.50;;;;;;5100286;28;20023;-62
2021/07/28 10:48:51;;;;;;;19.02;8.00;;;17.80;63.50;;;;;;5089651;28;20035;-67
2021/07/28 10:52:02;;;;;;;16.48;6.90;;;17.80;63.60;;;;;;5077860;28;20040;-66
2021/07/28 10:54:52;;;;;;;17.90;7.78;;;17.80;63.70;;;;;;5099791;28;20035;-58
2021/07/28 10:57:35;;;;;;;20.48;7.65;;;17.80;63.90;;;;;;5104376;28;20164;-62
2021/07/28 11:00:03;;;;;;;;;;;17.70;63.60;;;;;;5100100;28;20453;-62
2021/07/28 11:02:52;;;;;;;15.00;8.23;;;17.70;63.70;;;;;;5082194;28;20050;-61
2021/07/28 11:05:20;;;;;;;15.13;7.20;;;17.70;63.80;;;;;;5101427;28;20459;-62
2021/07/28 11:08:00;;;;;;;17.50;7.55;;;17.70;63.80;;;;;;5084745;28;20028;-63
2021/07/28 11:10:28;;;;;;;15.15;5.80;;;17.60;63.80;;;;;;5102905;28;20092;-61
2021/07/28 11:12:56;;;;;;;21.42;8.20;;;17.60;63.90;;;;;;5100590;28;20114;-62
2021/07/28 11:15:24;;;;;;;14.57;7.25;;;17.70;64.10;;;;;;5102418;28;20111;-61
2021/07/28 11:17:55;;;;;;;12.82;6.63;;;17.60;64.00;;;;;;5102687;28;20135;-62
2021/07/28 11:20:35;;;;;;;19.55;7.15;;;17.60;64.00;;;;;;5100855;28;20024;-60
2021/07/28 11:23:21;;;;;;;11.98;6.32;;;17.60;64.10;;;;;;5098144;28;20052;-61
2021/07/28 11:25:52;;;;;;;13.35;6.20;;;17.60;64.10;;;;;;5096615;28;20028;-66
2021/07/28 11:28:21;;;;;;;14.02;6.20;;;17.60;64.20;;;;;;5102874;28;20051;-61
2021/07/28 11:31:02;;;;;;;12.63;6.03;;;17.60;64.30;;;;;;5099676;28;20474;-62
2021/07/28 11:33:31;;;;;;;14.32;6.10;;;17.60;64.30;;;;;;5103222;28;20027;-60
2021/07/28 11:36:01;;;;;;;12.18;5.60;;;17.60;64.40;;;;;;5104967;28;20043;-62
2021/07/28 11:38:40;;;;;;;12.73;6.50;;;17.60;64.40;;;;;;5101291;28;20071;-63
2021/07/28 11:41:11;;;;;;;14.75;6.40;;;17.60;64.40;;;;;;5100708;28;20114;-63
2021/07/28 11:43:41;;;;;;;14.00;5.30;;;17.60;64.50;;;;;;5101135;28;20035;-61
2021/07/28 11:46:22;;;;;;;10.23;5.18;;;17.60;64.50;;;;;;5101861;28;20102;-61
2021/07/28 11:48:57;;;;;;;11.13;5.30;;;17.60;64.50;;;;;;5099218;28;20028;-58
2021/07/28 11:51:31;;;;;;;11.77;4.82;;;17.60;64.60;;;;;;5099884;28;20386;-62
2021/07/28 11:54:18;;;;;;;11.30;5.38;;;17.60;64.50;;;;;;5097190;28;20054;-61
2021/07/28 11:56:48;;;;;;;13.40;5.00;;;17.60;64.60;;;;;;5099938;28;20640;-62
2021/07/28 11:59:25;;;;;;;9.70;4.43;;;17.60;64.60;;;;;;5099770;28;20084;-62
2021/07/28 12:02:01;;;;;;;8.60;4.30;;;17.50;64.60;;;;;;5098767;28;20043;-59
2021/07/28 12:04:30;;;;;;;10.63;5.28;;;17.50;64.60;;;;;;5082557;28;20028;-60
2021/07/28 12:07:17;;;;;;;9.95;4.80;;;17.50;64.80;;;;;;5107281;28;20554;-60
2021/07/28 12:10:00;;;;;;;7.15;4.30;;;17.50;64.80;;;;;;5098988;28;20028;-55
2021/07/28 12:12:30;;;;;;;7.68;4.38;;;17.50;64.90;;;;;;5076070;28;20036;-61
2021/07/28 12:15:15;;;;;;;9.43;4.65;;;17.50;65.00;;;;;;5101658;28;20476;-59
2021/07/28 12:17:51;;;;;;;10.10;4.03;;;17.50;65.00;;;;;;5100782;28;20059;-63
2021/07/28 12:20:22;;;;;;;8.63;4.00;;;17.40;65.00;;;;;;5099545;28;20484;-60
2021/07/28 12:22:58;;;;;;;7.55;3.90;;;17.40;65.00;;;;;;5101272;28;20054;-60
2021/07/28 12:25:27;;;;;;;7.55;3.97;;;17.40;65.10;;;;;;5080141;28;20077;-61
2021/07/28 12:27:55;;;;;;;10.25;3.90;;;17.40;65.10;;;;;;5083215;28;20200;-62
2021/07/28 12:30:24;;;;;;;10.18;3.58;;;17.40;65.10;;;;;;5098626;28;20052;-57
2021/07/28 12:33:06;;;;;;;6.72;3.65;;;17.40;65.10;;;;;;5100783;28;20496;-64
2021/07/28 12:36:08;;;;;;;7.43;3.75;;;17.40;65.10;;;;;;5097440;28;20028;-60
2021/07/28 12:38:37;;;;;;;7.70;3.85;;;17.40;65.20;;;;;;5022200;28;20574;-61
2021/07/28 12:41:06;;;;;;;8.10;3.30;;;17.40;65.10;;;;;;5099437;28;20031;-61
2021/07/28 12:43:36;;;;;;;7.35;3.17;;;17.40;65.20;;;;;;5098153;28;20726;-60
2021/07/28 12:46:09;;;;;;;6.85;3.60;;;17.40;65.20;;;;;;5098132;28;20019;-61
2021/07/28 12:48:38;;;;;;;7.07;3.42;;;17.30;65.20;;;;;;5097747;28;20027;-61
2021/07/28 12:51:08;;;;;;;6.13;3.10;;;17.40;65.20;;;;;;5090767;28;20035;-58
2021/07/28 12:53:36;;;;;;;8.82;3.70;;;17.30;65.20;;;;;;5090471;28;20405;-62
2021/07/28 12:56:04;;;;;;;7.35;3.83;;;17.40;65.20;;;;;;5090469;28;20046;-62
2021/07/28 12:58:31;;;;;;;6.30;3.35;;;17.30;65.10;;;;;;5089818;28;20051;-62
2021/07/28 13:01:00;;;;;;;10.27;3.45;;;17.30;65.10;;;;;;5090228;28;20471;-61
2021/07/28 13:03:27;;;;;;;5.18;3.05;;;17.30;65.10;;;;;;5090624;28;20036;-60
2021/07/28 13:06:04;;;;;;;5.35;2.78;;;17.30;65.10;;;;;;5090708;28;20126;-60